Time;durP1;ratioP1;P1;durP2;ratioP2;P2;SDS_P1;SDS_P2;PMS_P1;PMS_P2;Temp;Humidity;BMP_temperature;BMP_pressure;BME280_temperature;BME280_humidity;BME280_pressure;Samples;Min_cycle;Max_cycle;Signal;HPM_P1;HPM_P2
2023/07/19 00:01:57;;;;;;;10.68;4.18;;;;;;;;;;5012777;28;20186;-70
2023/07/19 00:04:22;;;;;;;6.80;3.55;;;;;;;;;;4999308;28;20183;-70
2023/07/19 00:06:47;;;;;;;7.43;4.30;;;;;;;;;;5007146;28;20279;-68
2023/07/19 00:09:13;;;;;;;7.03;3.80;;;;;;;;;;5005263;28;20574;-68
2023/07/19 00:11:38;;;;;;;11.63;4.40;;;;;;;;;;5008368;28;20245;-69
2023/07/19 00:14:05;;;;;;;7.38;3.97;;;;;;;;;;4996337;28;20191;-69
2023/07/19 00:16:32;;;;;;;8.15;3.90;;;;;;;;;;4999199;28;20788;-68
2023/07/19 00:18:57;;;;;;;9.98;4.20;;;;;;;;;;5002803;28;20183;-68
2023/07/19 00:21:23;;;;;;;8.98;4.75;;;;;;;;;;4988814;28;20611;-68
2023/07/19 00:23:48;;;;;;;6.88;4.13;;;;;;;;;;4998597;28;20178;-70
2023/07/19 00:26:14;;;;;;;7.45;4.03;;;;;;;;;;5008647;28;20192;-69
2023/07/19 00:28:40;;;;;;;5.78;3.97;;;;;;;;;;5012244;28;20198;-68
2023/07/19 00:31:05;;;;;;;9.10;4.60;;;;;;;;;;5008597;28;20195;-69
2023/07/19 00:33:31;;;;;;;7.32;4.75;;;;;;;;;;5000936;28;20206;-70
2023/07/19 00:35:56;;;;;;;6.80;4.80;;;;;;;;;;5001744;28;20192;-68
2023/07/19 00:38:22;;;;;;;6.70;4.25;;;;;;;;;;4992691;28;20205;-70
2023/07/19 00:40:48;;;;;;;8.77;4.47;;;;;;;;;;5005352;28;20214;-69
2023/07/19 00:43:14;;;;;;;7.68;4.55;;;;;;;;;;4995528;28;20187;-70
2023/07/19 00:45:50;;;;;;;8.32;4.47;;;;;;;;;;4993497;28;20261;-70
2023/07/19 00:48:16;;;;;;;7.88;4.50;;;;;;;;;;5012331;28;20843;-68
2023/07/19 00:50:43;;;;;;;11.68;4.43;;;;;;;;;;5010670;28;20213;-70
2023/07/19 00:53:10;;;;;;;7.68;4.22;;;;;;;;;;5010995;28;20179;-69
2023/07/19 00:55:35;;;;;;;9.38;4.45;;;;;;;;;;5011666;28;20217;-69
2023/07/19 00:58:01;;;;;;;7.13;4.28;;;;;;;;;;5010798;28;20556;-69
2023/07/19 01:00:28;;;;;;;7.93;4.75;;;;;;;;;;5011140;28;20187;-69
2023/07/19 01:02:54;;;;;;;7.93;4.25;;;;;;;;;;5011668;28;20187;-68
2023/07/19 01:05:19;;;;;;;8.18;4.63;;;;;;;;;;5015879;28;20191;-69
2023/07/19 01:07:45;;;;;;;9.95;4.68;;;;;;;;;;5011293;28;20673;-69
2023/07/19 01:10:12;;;;;;;7.45;4.68;;;;;;;;;;5011986;28;20306;-70
2023/07/19 01:12:38;;;;;;;10.23;4.78;;;;;;;;;;5018232;28;20262;-70
2023/07/19 01:15:08;;;;;;;7.35;4.65;;;;;;;;;;4992380;28;20599;-69
2023/07/19 01:17:34;;;;;;;6.80;4.07;;;;;;;;;;4988483;28;20267;-69
2023/07/19 01:19:59;;;;;;;6.47;4.20;;;;;;;;;;5000508;28;20662;-69
2023/07/19 01:22:30;;;;;;;7.80;4.30;;;;;;;;;;4999551;28;20198;-69
2023/07/19 01:24:56;;;;;;;8.80;4.50;;;;;;;;;;5007488;28;20233;-69
2023/07/19 01:27:21;;;;;;;6.72;4.70;;;;;;;;;;5010651;28;20326;-69
2023/07/19 01:29:46;;;;;;;6.70;4.93;;;;;;;;;;5004299;28;20196;-69
2023/07/19 01:32:12;;;;;;;9.40;4.93;;;;;;;;;;4995763;28;20194;-69
2023/07/19 01:34:37;;;;;;;13.18;5.20;;;;;;;;;;5011274;28;20183;-70
2023/07/19 01:37:02;;;;;;;11.00;4.95;;;;;;;;;;5000808;28;20226;-69
2023/07/19 01:39:28;;;;;;;10.95;5.13;;;;;;;;;;5008749;28;20218;-69
2023/07/19 01:41:53;;;;;;;11.93;5.20;;;;;;;;;;5010341;28;20769;-69
2023/07/19 01:44:19;;;;;;;11.70;5.35;;;;;;;;;;5010699;28;20233;-69
2023/07/19 01:46:44;;;;;;;11.18;5.75;;;;;;;;;;4995632;28;20478;-69
2023/07/19 01:49:09;;;;;;;10.60;5.05;;;;;;;;;;4995875;28;20214;-69
2023/07/19 01:51:35;;;;;;;11.25;6.30;;;;;;;;;;5010410;28;20195;-69
2023/07/19 01:54:00;;;;;;;10.35;5.68;;;;;;;;;;5006078;28;20680;-68
2023/07/19 01:56:25;;;;;;;8.35;5.07;;;;;;;;;;5007302;28;20205;-70
2023/07/19 01:58:51;;;;;;;9.77;5.57;;;;;;;;;;5005755;28;20210;-70
2023/07/19 02:01:16;;;;;;;12.32;5.28;;;;;;;;;;5010766;28;20205;-70
2023/07/19 02:03:42;;;;;;;9.88;6.28;;;;;;;;;;5008764;28;20241;-70
2023/07/19 02:06:07;;;;;;;11.85;4.90;;;;;;;;;;5007429;28;20201;-70
2023/07/19 02:08:32;;;;;;;12.52;5.57;;;;;;;;;;5011684;28;20677;-70
2023/07/19 02:10:58;;;;;;;10.23;5.25;;;;;;;;;;5005621;28;20306;-70
2023/07/19 02:13:23;;;;;;;11.88;5.60;;;;;;;;;;5000848;28;20211;-70
2023/07/19 02:15:48;;;;;;;9.20;5.00;;;;;;;;;;4994528;28;20198;-70
2023/07/19 02:18:14;;;;;;;7.72;4.88;;;;;;;;;;5010484;28;20690;-70
2023/07/19 02:20:47;;;;;;;7.90;5.18;;;;;;;;;;5009536;28;20273;-70
2023/07/19 02:23:13;;;;;;;11.77;5.43;;;;;;;;;;5010814;28;20190;-70
2023/07/19 02:25:40;;;;;;;10.65;5.40;;;;;;;;;;4997746;28;20183;-70
2023/07/19 02:28:06;;;;;;;7.47;4.93;;;;;;;;;;4991122;28;20230;-69
2023/07/19 02:30:32;;;;;;;7.65;5.38;;;;;;;;;;5002312;28;20210;-70
2023/07/19 02:32:57;;;;;;;8.45;5.00;;;;;;;;;;4999172;28;20184;-70
2023/07/19 02:35:23;;;;;;;11.45;5.05;;;;;;;;;;5005205;28;20199;-70
2023/07/19 02:37:48;;;;;;;8.57;4.88;;;;;;;;;;4995415;28;20581;-70
2023/07/19 02:40:13;;;;;;;10.07;5.47;;;;;;;;;;4997493;28;20195;-70
2023/07/19 02:42:39;;;;;;;8.25;4.90;;;;;;;;;;5006379;28;20278;-70
2023/07/19 02:45:05;;;;;;;8.70;5.63;;;;;;;;;;5006830;28;20626;-70
2023/07/19 02:47:32;;;;;;;10.70;5.18;;;;;;;;;;5009195;28;20203;-69
2023/07/19 02:49:57;;;;;;;10.73;5.45;;;;;;;;;;4977899;28;20199;-69
2023/07/19 02:52:22;;;;;;;12.00;5.85;;;;;;;;;;4994275;28;20199;-70
2023/07/19 02:54:48;;;;;;;10.50;5.55;;;;;;;;;;5006797;28;20191;-69
2023/07/19 02:57:13;;;;;;;11.27;5.90;;;;;;;;;;5013862;28;20201;-70
2023/07/19 02:59:38;;;;;;;11.25;6.13;;;;;;;;;;4996021;28;20546;-70
2023/07/19 03:02:04;;;;;;;8.57;5.60;;;;;;;;;;5009992;28;20270;-70
2023/07/19 03:04:30;;;;;;;10.55;6.00;;;;;;;;;;5002023;28;20195;-69
2023/07/19 03:06:56;;;;;;;10.55;5.93;;;;;;;;;;5014342;28;20629;-70
2023/07/19 03:09:22;;;;;;;7.68;5.72;;;;;;;;;;5008151;28;20231;-69
2023/07/19 03:11:47;;;;;;;10.63;6.13;;;;;;;;;;4995309;28;20655;-69
2023/07/19 03:14:12;;;;;;;12.25;6.13;;;;;;;;;;4994192;28;20183;-70
2023/07/19 03:16:38;;;;;;;13.10;6.35;;;;;;;;;;5005498;28;20214;-70
2023/07/19 03:19:03;;;;;;;8.65;6.35;;;;;;;;;;5012985;28;20187;-70
2023/07/19 03:21:29;;;;;;;12.00;7.13;;;;;;;;;;5014292;28;20217;-70
2023/07/19 03:23:54;;;;;;;10.90;6.90;;;;;;;;;;5000368;28;20191;-70
2023/07/19 03:26:19;;;;;;;10.98;6.38;;;;;;;;;;5007698;28;20234;-69
2023/07/19 03:28:45;;;;;;;10.10;6.28;;;;;;;;;;5007419;28;20199;-70
2023/07/19 03:31:12;;;;;;;10.35;6.13;;;;;;;;;;5014468;28;20586;-69
2023/07/19 03:33:37;;;;;;;9.95;6.75;;;;;;;;;;4997139;28;20180;-69
2023/07/19 03:36:03;;;;;;;8.45;6.30;;;;;;;;;;5012893;28;20720;-69
2023/07/19 03:38:28;;;;;;;13.18;6.72;;;;;;;;;;5007191;28;20195;-69
2023/07/19 03:40:54;;;;;;;11.35;6.35;;;;;;;;;;5009158;28;20548;-70
2023/07/19 03:43:19;;;;;;;11.20;6.88;;;;;;;;;;5010525;28;20218;-69
2023/07/19 03:45:44;;;;;;;8.65;6.22;;;;;;;;;;4994833;28;20195;-69
2023/07/19 03:48:10;;;;;;;9.27;6.10;;;;;;;;;;5006145;28;20518;-69
2023/07/19 03:50:36;;;;;;;14.65;6.72;;;;;;;;;;4994850;28;20243;-69
2023/07/19 03:53:01;;;;;;;8.95;6.85;;;;;;;;;;5012836;28;20201;-70
2023/07/19 03:55:27;;;;;;;10.32;6.30;;;;;;;;;;5009506;28;20198;-69
2023/07/19 03:57:52;;;;;;;13.43;6.03;;;;;;;;;;5005125;28;20188;-70
2023/07/19 04:00:18;;;;;;;11.18;6.22;;;;;;;;;;5008870;28;20212;-70
2023/07/19 04:02:43;;;;;;;13.55;5.90;;;;;;;;;;5005897;28;20672;-70
2023/07/19 04:05:09;;;;;;;11.45;6.97;;;;;;;;;;4993680;28;20283;-70
2023/07/19 04:07:34;;;;;;;11.25;6.43;;;;;;;;;;5010334;28;20187;-70
2023/07/19 04:09:59;;;;;;;11.02;6.72;;;;;;;;;;5007013;28;20238;-70
2023/07/19 04:12:25;;;;;;;8.52;6.57;;;;;;;;;;5002855;28;20650;-70
2023/07/19 04:14:50;;;;;;;8.90;6.20;;;;;;;;;;5004118;28;20250;-70
2023/07/19 04:17:16;;;;;;;12.15;6.78;;;;;;;;;;5004767;28;20211;-70
2023/07/19 04:19:41;;;;;;;12.32;6.10;;;;;;;;;;5011911;28;20670;-70
2023/07/19 04:22:06;;;;;;;10.82;6.32;;;;;;;;;;5011445;28;20256;-70
2023/07/19 04:24:33;;;;;;;11.60;6.30;;;;;;;;;;5003006;28;20196;-70
2023/07/19 04:26:58;;;;;;;9.88;5.75;;;;;;;;;;4999990;28;20249;-70
2023/07/19 04:29:23;;;;;;;9.52;5.40;;;;;;;;;;4992828;28;20212;-70
2023/07/19 04:31:49;;;;;;;8.68;4.90;;;;;;;;;;4994589;28;20199;-70
2023/07/19 04:34:15;;;;;;;11.82;4.85;;;;;;;;;;4994555;28;20681;-70
2023/07/19 04:36:43;;;;;;;8.30;5.07;;;;;;;;;;5008062;28;20222;-70
2023/07/19 04:39:08;;;;;;;7.90;4.55;;;;;;;;;;5017166;28;20608;-69
2023/07/19 04:41:34;;;;;;;11.73;4.63;;;;;;;;;;5011725;28;20182;-69
2023/07/19 04:43:59;;;;;;;7.95;4.90;;;;;;;;;;4998299;28;20278;-69
2023/07/19 04:46:25;;;;;;;9.30;4.95;;;;;;;;;;5009687;28;20191;-69
2023/07/19 04:48:50;;;;;;;7.18;4.35;;;;;;;;;;5008135;28;20617;-69
2023/07/19 04:51:15;;;;;;;6.70;4.03;;;;;;;;;;5008848;28;20207;-69
2023/07/19 04:53:41;;;;;;;8.70;4.72;;;;;;;;;;4993862;28;20190;-69
2023/07/19 04:56:06;;;;;;;9.23;4.22;;;;;;;;;;5008133;28;20191;-68
2023/07/19 04:58:32;;;;;;;9.35;4.38;;;;;;;;;;5001693;28;20191;-68
2023/07/19 05:01:03;;;;;;;5.65;4.10;;;;;;;;;;5006270;28;20202;-70
2023/07/19 05:03:29;;;;;;;7.88;3.80;;;;;;;;;;4994511;28;20183;-70
2023/07/19 05:05:54;;;;;;;10.13;4.20;;;;;;;;;;4998839;28;20674;-68
2023/07/19 05:08:20;;;;;;;6.90;4.10;;;;;;;;;;5003698;28;20203;-68
2023/07/19 05:10:45;;;;;;;6.25;4.05;;;;;;;;;;5007115;28;20228;-69
2023/07/19 05:13:10;;;;;;;6.70;3.85;;;;;;;;;;5002720;28;20210;-69
2023/07/19 05:15:36;;;;;;;6.82;3.65;;;;;;;;;;5000613;28;20596;-69
2023/07/19 05:18:02;;;;;;;11.60;3.88;;;;;;;;;;5007383;28;20299;-69
2023/07/19 05:20:28;;;;;;;8.77;4.07;;;;;;;;;;4994324;28;20766;-69
2023/07/19 05:22:53;;;;;;;8.20;3.95;;;;;;;;;;4998366;28;20190;-69
2023/07/19 05:25:19;;;;;;;10.25;4.00;;;;;;;;;;5020155;28;20250;-69
2023/07/19 05:27:44;;;;;;;7.07;3.85;;;;;;;;;;5007238;28;20233;-68
2023/07/19 05:30:10;;;;;;;6.68;3.83;;;;;;;;;;5003060;28;20222;-70
2023/07/19 05:32:35;;;;;;;10.88;4.40;;;;;;;;;;4997045;28;20635;-70
2023/07/19 05:35:01;;;;;;;9.05;4.32;;;;;;;;;;5003654;28;20193;-70
2023/07/19 05:37:27;;;;;;;6.82;3.75;;;;;;;;;;5000901;28;20196;-70
2023/07/19 05:39:53;;;;;;;8.55;3.75;;;;;;;;;;5009915;28;20209;-69
2023/07/19 05:42:18;;;;;;;6.75;4.00;;;;;;;;;;4994874;28;20542;-70
2023/07/19 05:44:44;;;;;;;6.30;2.80;;;;;;;;;;5014980;28;20186;-70
2023/07/19 05:47:09;;;;;;;5.72;3.10;;;;;;;;;;4999914;28;20387;-69
2023/07/19 05:49:35;;;;;;;8.60;3.17;;;;;;;;;;5024571;28;20669;-70
2023/07/19 05:52:00;;;;;;;6.43;3.00;;;;;;;;;;5009982;28;20196;-69
2023/07/19 05:54:25;;;;;;;5.20;2.92;;;;;;;;;;5003329;28;20294;-70
2023/07/19 05:56:51;;;;;;;6.85;2.65;;;;;;;;;;4997484;28;20201;-70
2023/07/19 05:59:16;;;;;;;5.32;2.65;;;;;;;;;;4998550;28;20194;-69
2023/07/19 06:01:42;;;;;;;5.97;2.63;;;;;;;;;;5000485;28;20192;-69
2023/07/19 06:04:08;;;;;;;5.00;2.30;;;;;;;;;;5004688;28;20565;-69
2023/07/19 06:06:34;;;;;;;4.75;2.80;;;;;;;;;;5006050;28;20523;-69
2023/07/19 06:09:01;;;;;;;7.82;2.88;;;;;;;;;;5013349;28;20191;-70
2023/07/19 06:11:27;;;;;;;3.60;2.35;;;;;;;;;;5004012;28;20183;-69
2023/07/19 06:13:52;;;;;;;6.47;2.85;;;;;;;;;;5000140;28;20234;-69
2023/07/19 06:16:17;;;;;;;7.78;3.20;;;;;;;;;;5001662;28;20321;-70
2023/07/19 06:18:43;;;;;;;6.65;3.13;;;;;;;;;;4999024;28;20541;-69
2023/07/19 06:21:08;;;;;;;8.05;2.88;;;;;;;;;;4998909;28;20186;-69
2023/07/19 06:23:33;;;;;;;6.22;2.63;;;;;;;;;;5008639;28;20697;-69
2023/07/19 06:25:59;;;;;;;3.22;2.38;;;;;;;;;;4997285;28;20191;-70
2023/07/19 06:28:25;;;;;;;4.50;2.38;;;;;;;;;;4993043;28;20195;-69
2023/07/19 06:30:51;;;;;;;3.85;2.50;;;;;;;;;;5014862;28;20218;-69
2023/07/19 06:33:16;;;;;;;3.90;2.50;;;;;;;;;;4998628;28;20268;-70
2023/07/19 06:35:42;;;;;;;7.05;2.45;;;;;;;;;;5007582;28;20193;-69
2023/07/19 06:38:08;;;;;;;9.10;2.75;;;;;;;;;;5008597;28;20569;-69
2023/07/19 06:40:33;;;;;;;4.78;2.05;;;;;;;;;;4998339;28;20187;-69
2023/07/19 06:42:59;;;;;;;6.72;2.53;;;;;;;;;;5004919;28;20196;-69
2023/07/19 06:45:24;;;;;;;4.10;2.03;;;;;;;;;;4991407;28;20267;-69
2023/07/19 06:47:49;;;;;;;5.90;2.42;;;;;;;;;;5003021;28;20219;-69
2023/07/19 06:50:15;;;;;;;5.43;2.30;;;;;;;;;;5007371;28;20253;-69
2023/07/19 06:52:40;;;;;;;4.88;2.40;;;;;;;;;;5002270;28;20666;-70
2023/07/19 06:55:06;;;;;;;5.68;2.22;;;;;;;;;;5007528;28;20230;-70
2023/07/19 06:57:31;;;;;;;5.03;1.90;;;;;;;;;;4996506;28;20192;-70
2023/07/19 06:59:58;;;;;;;4.85;2.08;;;;;;;;;;4993178;28;20219;-70
2023/07/19 07:02:23;;;;;;;4.40;1.63;;;;;;;;;;4992839;28;20206;-70
2023/07/19 07:04:50;;;;;;;6.25;1.67;;;;;;;;;;4990716;28;20294;-70
2023/07/19 07:07:18;;;;;;;3.40;1.40;;;;;;;;;;5003945;28;20322;-70
2023/07/19 07:09:43;;;;;;;3.05;1.45;;;;;;;;;;4997691;28;20287;-70
2023/07/19 07:12:10;;;;;;;3.85;1.30;;;;;;;;;;4996267;28;20306;-70
2023/07/19 07:14:36;;;;;;;5.85;1.30;;;;;;;;;;5000612;28;20195;-70
2023/07/19 07:17:02;;;;;;;3.17;0.95;;;;;;;;;;5002690;28;20222;-70
2023/07/19 07:19:28;;;;;;;3.72;1.20;;;;;;;;;;5001658;28;20198;-70
2023/07/19 07:21:53;;;;;;;3.17;1.00;;;;;;;;;;4993353;28;20525;-68
2023/07/19 07:24:18;;;;;;;2.97;1.25;;;;;;;;;;5013134;28;20190;-69
2023/07/19 07:26:44;;;;;;;2.90;0.95;;;;;;;;;;5009621;28;20763;-68
2023/07/19 07:29:09;;;;;;;1.95;1.10;;;;;;;;;;5012056;28;20246;-68
2023/07/19 07:31:35;;;;;;;3.20;1.27;;;;;;;;;;5013498;28;20194;-68
2023/07/19 07:34:00;;;;;;;2.05;0.90;;;;;;;;;;5011222;28;20209;-68
2023/07/19 07:36:25;;;;;;;3.03;1.30;;;;;;;;;;5013329;28;20266;-68
2023/07/19 07:38:51;;;;;;;7.95;1.27;;;;;;;;;;4999713;28;20219;-68
2023/07/19 07:41:16;;;;;;;4.75;1.33;;;;;;;;;;5012122;28;20191;-68
2023/07/19 07:43:42;;;;;;;4.15;1.13;;;;;;;;;;5003756;28;20186;-67
2023/07/19 07:46:07;;;;;;;4.95;1.17;;;;;;;;;;5010285;28;20244;-68
2023/07/19 07:48:33;;;;;;;3.97;1.45;;;;;;;;;;5001068;28;20195;-69
2023/07/19 07:50:58;;;;;;;4.43;1.38;;;;;;;;;;5007972;28;20207;-70
2023/07/19 07:53:24;;;;;;;3.22;1.38;;;;;;;;;;5001309;28;20198;-69
2023/07/19 07:55:49;;;;;;;4.80;1.33;;;;;;;;;;5011071;28;20650;-69
2023/07/19 07:58:15;;;;;;;4.40;1.45;;;;;;;;;;5012433;28;20195;-69
2023/07/19 08:00:41;;;;;;;3.05;1.13;;;;;;;;;;5012096;28;20191;-69
2023/07/19 08:03:06;;;;;;;3.90;1.67;;;;;;;;;;5008318;28;20237;-69
2023/07/19 08:05:32;;;;;;;3.47;1.58;;;;;;;;;;5010823;28;20234;-69
2023/07/19 08:07:58;;;;;;;4.43;1.75;;;;;;;;;;5014146;28;20193;-69
2023/07/19 08:10:23;;;;;;;5.03;1.83;;;;;;;;;;5007352;28;20317;-70
2023/07/19 08:12:49;;;;;;;5.00;1.58;;;;;;;;;;5004449;28;20190;-69
2023/07/19 08:15:14;;;;;;;3.25;1.48;;;;;;;;;;5009325;28;20203;-69
2023/07/19 08:17:39;;;;;;;5.22;1.40;;;;;;;;;;5009001;28;20222;-69
2023/07/19 08:20:08;;;;;;;3.60;1.50;;;;;;;;;;5011212;28;20194;-69
2023/07/19 08:22:35;;;;;;;4.10;1.40;;;;;;;;;;5005686;28;20191;-70
2023/07/19 08:25:00;;;;;;;3.33;1.15;;;;;;;;;;5005535;28;20198;-69
2023/07/19 08:27:26;;;;;;;4.05;1.70;;;;;;;;;;4971734;28;20592;-69
2023/07/19 08:29:52;;;;;;;2.65;1.10;;;;;;;;;;4992391;28;20331;-69
2023/07/19 08:32:18;;;;;;;4.00;1.40;;;;;;;;;;4988093;28;20655;-68
2023/07/19 08:34:43;;;;;;;3.85;1.20;;;;;;;;;;4987798;28;20271;-70
2023/07/19 08:37:09;;;;;;;3.80;1.30;;;;;;;;;;4985641;28;20374;-70
2023/07/19 08:39:34;;;;;;;4.40;1.42;;;;;;;;;;4998760;28;20600;-69
2023/07/19 08:42:03;;;;;;;4.82;1.70;;;;;;;;;;4980104;28;20204;-70
2023/07/19 08:44:29;;;;;;;3.05;1.40;;;;;;;;;;4982817;28;20184;-69
2023/07/19 08:46:55;;;;;;;5.13;1.50;;;;;;;;;;4993171;28;20200;-69
2023/07/19 08:49:21;;;;;;;6.07;1.40;;;;;;;;;;4982678;28;20592;-69
2023/07/19 08:51:47;;;;;;;3.85;1.65;;;;;;;;;;4974410;28;20203;-69
2023/07/19 08:54:13;;;;;;;4.60;1.20;;;;;;;;;;5004325;28;20730;-69
2023/07/19 08:56:40;;;;;;;4.60;1.38;;;;;;;;;;4976051;28;20223;-69
2023/07/19 08:59:05;;;;;;;3.83;1.55;;;;;;;;;;4986050;28;20191;-69
2023/07/19 09:01:31;;;;;;;4.28;1.65;;;;;;;;;;4992110;28;20210;-69
2023/07/19 09:03:57;;;;;;;3.80;1.70;;;;;;;;;;4991549;28;20192;-69
2023/07/19 09:06:28;;;;;;;3.13;1.38;;;;;;;;;;4992103;28;20200;-69
2023/07/19 09:08:55;;;;;;;3.20;1.55;;;;;;;;;;4985980;28;20225;-70
2023/07/19 09:11:24;;;;;;;3.88;1.42;;;;;;;;;;4991060;28;20191;-69
2023/07/19 09:13:58;;;;;;;5.50;1.83;;;;;;;;;;4983070;28;20184;-69
2023/07/19 09:16:32;;;;;;;6.13;1.75;;;;;;;;;;4991300;28;20198;-69
2023/07/19 09:18:59;;;;;;;2.67;1.45;;;;;;;;;;4986425;28;20880;-70
2023/07/19 09:21:40;;;;;;;5.07;1.13;;;;;;;;;;4981646;28;20239;-69
2023/07/19 09:24:09;;;;;;;8.27;1.92;;;;;;;;;;4984390;28;20188;-69
2023/07/19 09:26:50;;;;;;;3.85;1.58;;;;;;;;;;4981284;28;20332;-69
2023/07/19 09:29:17;;;;;;;4.25;1.83;;;;;;;;;;5009429;28;20265;-70
2023/07/19 09:32:09;;;;;;;4.85;1.52;;;;;;;;;;5004989;28;20329;-69
2023/07/19 09:34:36;;;;;;;3.85;1.65;;;;;;;;;;5007931;28;20203;-69
2023/07/19 09:37:02;;;;;;;4.75;1.67;;;;;;;;;;5004004;28;20326;-70
2023/07/19 09:39:29;;;;;;;3.92;1.42;;;;;;;;;;5010538;28;20198;-69
2023/07/19 09:41:54;;;;;;;3.75;1.70;;;;;;;;;;5010716;28;20577;-69
2023/07/19 09:44:21;;;;;;;5.07;1.65;;;;;;;;;;5010602;28;20197;-69
2023/07/19 09:46:47;;;;;;;4.20;1.40;;;;;;;;;;5005664;28;20206;-69
2023/07/19 09:49:13;;;;;;;3.85;1.67;;;;;;;;;;5007669;28;20199;-69
2023/07/19 09:51:41;;;;;;;5.25;1.92;;;;;;;;;;5003694;28;20195;-69
2023/07/19 09:54:09;;;;;;;4.75;1.70;;;;;;;;;;5003700;28;20195;-69
2023/07/19 09:56:35;;;;;;;5.50;1.65;;;;;;;;;;5009548;28;20191;-69
2023/07/19 09:59:01;;;;;;;5.20;1.70;;;;;;;;;;5008198;28;20661;-69
2023/07/19 10:01:27;;;;;;;4.28;1.63;;;;;;;;;;5001764;28;20273;-69
2023/07/19 10:03:52;;;;;;;4.93;1.52;;;;;;;;;;5009313;28;20372;-69
2023/07/19 10:06:17;;;;;;;3.90;1.67;;;;;;;;;;5009179;28;20195;-69
2023/07/19 10:08:43;;;;;;;6.10;2.15;;;;;;;;;;4990516;28;20186;-69
2023/07/19 10:11:21;;;;;;;4.82;1.73;;;;;;;;;;5002623;28;20218;-70
2023/07/19 10:13:56;;;;;;;4.30;1.80;;;;;;;;;;5012865;28;20186;-70
2023/07/19 10:16:33;;;;;;;3.90;1.90;;;;;;;;;;5002513;28;20218;-68
2023/07/19 10:19:11;;;;;;;4.32;1.60;;;;;;;;;;5003685;28;20193;-69
2023/07/19 10:21:37;;;;;;;3.63;1.40;;;;;;;;;;5003523;28;20206;-68
2023/07/19 10:24:08;;;;;;;4.55;1.60;;;;;;;;;;5009745;28;20269;-67
2023/07/19 10:26:37;;;;;;;8.10;2.05;;;;;;;;;;5004982;28;20248;-68
2023/07/19 10:29:06;;;;;;;3.83;1.67;;;;;;;;;;4996022;28;20213;-68
2023/07/19 10:31:31;;;;;;;4.22;1.63;;;;;;;;;;5003784;28;20199;-68
2023/07/19 10:33:57;;;;;;;6.43;1.60;;;;;;;;;;5008015;28;20236;-69
2023/07/19 10:36:23;;;;;;;2.78;1.42;;;;;;;;;;5020327;28;20647;-68
2023/07/19 10:38:49;;;;;;;4.38;1.90;;;;;;;;;;5002727;28;20202;-68
2023/07/19 10:41:15;;;;;;;3.72;1.92;;;;;;;;;;5000848;28;20857;-68
2023/07/19 10:43:41;;;;;;;2.83;1.55;;;;;;;;;;5005796;28;20237;-68
2023/07/19 10:46:07;;;;;;;4.28;1.70;;;;;;;;;;4993146;28;20226;-68
2023/07/19 10:48:37;;;;;;;7.00;1.75;;;;;;;;;;5001081;28;20654;-69
2023/07/19 10:51:09;;;;;;;3.97;1.63;;;;;;;;;;5005990;28;20245;-67
2023/07/19 10:53:48;;;;;;;4.43;1.85;;;;;;;;;;5009256;28;20223;-69
2023/07/19 10:56:16;;;;;;;3.92;1.85;;;;;;;;;;5011158;28;20285;-69
2023/07/19 10:58:42;;;;;;;6.03;1.90;;;;;;;;;;5013219;28;20233;-68
2023/07/19 11:01:08;;;;;;;3.00;1.63;;;;;;;;;;4994962;28;20241;-69
2023/07/19 11:03:33;;;;;;;3.92;1.70;;;;;;;;;;5011431;28;20183;-67
2023/07/19 11:05:59;;;;;;;4.68;1.70;;;;;;;;;;5005327;28;20686;-68
2023/07/19 11:08:28;;;;;;;5.13;1.80;;;;;;;;;;4991651;28;20206;-67
2023/07/19 11:10:56;;;;;;;4.55;1.70;;;;;;;;;;4994641;28;20302;-68
2023/07/19 11:13:24;;;;;;;4.03;1.70;;;;;;;;;;5014869;28;20187;-70
2023/07/19 11:15:51;;;;;;;3.03;1.42;;;;;;;;;;5011570;28;20191;-68
2023/07/19 11:18:28;;;;;;;3.85;1.88;;;;;;;;;;5012871;28;20206;-68
2023/07/19 11:20:57;;;;;;;4.22;1.95;;;;;;;;;;4997860;28;20191;-69
2023/07/19 11:23:24;;;;;;;6.10;1.90;;;;;;;;;;4986811;28;20188;-68
2023/07/19 11:25:50;;;;;;;4.60;2.00;;;;;;;;;;4988634;28;20592;-69
2023/07/19 11:28:35;;;;;;;3.67;1.83;;;;;;;;;;5001933;28;20227;-69
2023/07/19 11:31:03;;;;;;;5.10;1.80;;;;;;;;;;5008274;28;20271;-68
2023/07/19 11:33:29;;;;;;;3.47;1.65;;;;;;;;;;5019115;28;20191;-69
2023/07/19 11:35:54;;;;;;;5.68;2.25;;;;;;;;;;4989490;28;20274;-69
2023/07/19 11:38:20;;;;;;;3.53;1.95;;;;;;;;;;5013433;28;20183;-69
2023/07/19 11:40:45;;;;;;;5.63;2.13;;;;;;;;;;5030337;28;20193;-69
2023/07/19 11:43:10;;;;;;;8.15;1.92;;;;;;;;;;5016661;28;20198;-69
2023/07/19 11:45:36;;;;;;;4.25;1.98;;;;;;;;;;5014123;28;20195;-69
2023/07/19 11:48:02;;;;;;;3.47;1.85;;;;;;;;;;5026346;28;20191;-69
2023/07/19 11:50:28;;;;;;;4.20;1.80;;;;;;;;;;5012618;28;20296;-69
2023/07/19 11:53:01;;;;;;;5.65;1.90;;;;;;;;;;5025451;28;20602;-69
2023/07/19 11:55:28;;;;;;;4.78;1.83;;;;;;;;;;5011295;28;20187;-69
2023/07/19 11:57:55;;;;;;;4.13;1.90;;;;;;;;;;5013613;28;20264;-69
2023/07/19 12:00:23;;;;;;;4.28;2.20;;;;;;;;;;5012298;28;20193;-69
2023/07/19 12:02:50;;;;;;;4.70;2.25;;;;;;;;;;5006480;28;20251;-69
2023/07/19 12:05:20;;;;;;;6.78;2.15;;;;;;;;;;5004043;28;20187;-69
2023/07/19 12:07:47;;;;;;;5.13;2.28;;;;;;;;;;5016994;28;20271;-69
2023/07/19 12:10:13;;;;;;;4.55;1.90;;;;;;;;;;4995690;28;20514;-69
2023/07/19 12:12:39;;;;;;;5.25;1.90;;;;;;;;;;5017110;28;20265;-69
2023/07/19 12:15:08;;;;;;;8.38;2.10;;;;;;;;;;5018687;28;20198;-69
2023/07/19 12:17:34;;;;;;;3.50;1.88;;;;;;;;;;5026027;28;20210;-72
2023/07/19 12:20:00;;;;;;;5.90;2.10;;;;;;;;;;5012919;28;20191;-70
2023/07/19 12:22:28;;;;;;;3.75;2.28;;;;;;;;;;5004798;28;20187;-69
2023/07/19 12:24:54;;;;;;;5.82;2.15;;;;;;;;;;5001637;28;20186;-68
2023/07/19 12:27:19;;;;;;;3.35;1.75;;;;;;;;;;5003271;28;20227;-69
2023/07/19 12:29:45;;;;;;;5.65;1.92;;;;;;;;;;4994813;28;20596;-69
2023/07/19 12:32:10;;;;;;;4.63;1.92;;;;;;;;;;4996922;28;20199;-69
2023/07/19 12:34:35;;;;;;;6.55;1.70;;;;;;;;;;4998732;28;20198;-69
2023/07/19 12:37:01;;;;;;;4.50;1.65;;;;;;;;;;5007624;28;20699;-69
2023/07/19 12:39:26;;;;;;;6.95;2.05;;;;;;;;;;5010877;28;20217;-69
2023/07/19 12:41:52;;;;;;;6.05;2.00;;;;;;;;;;4993515;28;20179;-69
2023/07/19 12:44:19;;;;;;;5.57;2.20;;;;;;;;;;5010496;28;20191;-69
2023/07/19 12:46:45;;;;;;;5.13;2.30;;;;;;;;;;5006000;28;20191;-68
2023/07/19 12:49:11;;;;;;;4.53;2.33;;;;;;;;;;5000340;28;20199;-68
2023/07/19 12:51:36;;;;;;;6.43;2.10;;;;;;;;;;5012432;28;20206;-69
2023/07/19 12:54:01;;;;;;;5.75;2.10;;;;;;;;;;5008815;28;20199;-69
2023/07/19 12:56:27;;;;;;;6.55;1.90;;;;;;;;;;5009214;28;20195;-68
2023/07/19 12:58:54;;;;;;;3.78;1.90;;;;;;;;;;5010090;28;20193;-70
2023/07/19 13:01:20;;;;;;;4.45;1.55;;;;;;;;;;5004510;28;20546;-69
2023/07/19 13:03:46;;;;;;;4.90;1.55;;;;;;;;;;4999838;28;20191;-69
2023/07/19 13:06:11;;;;;;;6.20;1.38;;;;;;;;;;5008302;28;20199;-69
2023/07/19 13:08:36;;;;;;;3.72;1.52;;;;;;;;;;4998032;28;20195;-70
2023/07/19 13:11:02;;;;;;;6.10;1.92;;;;;;;;;;5012007;28;20233;-69
2023/07/19 13:13:27;;;;;;;2.83;1.40;;;;;;;;;;5011874;28;20249;-69
2023/07/19 13:15:52;;;;;;;3.92;1.60;;;;;;;;;;5010570;28;20190;-69
2023/07/19 13:18:18;;;;;;;3.10;1.35;;;;;;;;;;5030540;28;20229;-68
2023/07/19 13:20:43;;;;;;;4.50;1.45;;;;;;;;;;5010462;28;20229;-71
2023/07/19 13:23:09;;;;;;;4.25;1.38;;;;;;;;;;5000581;28;20194;-69
2023/07/19 13:25:35;;;;;;;3.15;1.50;;;;;;;;;;4998175;28;20534;-68
2023/07/19 13:28:00;;;;;;;3.60;1.60;;;;;;;;;;4995756;28;20231;-70
2023/07/19 13:30:26;;;;;;;3.53;1.33;;;;;;;;;;4998818;28;20250;-70
2023/07/19 13:32:52;;;;;;;3.95;1.45;;;;;;;;;;5012069;28;20218;-70
2023/07/19 13:35:17;;;;;;;3.60;1.30;;;;;;;;;;5010552;28;20696;-70
2023/07/19 13:37:43;;;;;;;3.30;1.67;;;;;;;;;;4997969;28;20269;-70
2023/07/19 13:40:09;;;;;;;6.18;1.38;;;;;;;;;;5011269;28;20227;-69
2023/07/19 13:42:38;;;;;;;5.07;1.45;;;;;;;;;;5000214;28;20264;-70
2023/07/19 13:45:04;;;;;;;3.60;1.30;;;;;;;;;;4992749;28;20310;-71
2023/07/19 13:47:29;;;;;;;3.78;2.05;;;;;;;;;;4991146;28;20278;-70
2023/07/19 13:49:54;;;;;;;3.63;1.83;;;;;;;;;;5004987;28;20310;-70
2023/07/19 13:52:20;;;;;;;4.32;1.70;;;;;;;;;;4996932;28;20199;-70
2023/07/19 13:54:45;;;;;;;8.00;1.70;;;;;;;;;;5004314;28;20683;-70
2023/07/19 13:57:10;;;;;;;3.92;1.60;;;;;;;;;;4997731;28;20207;-70
2023/07/19 13:59:36;;;;;;;3.95;1.65;;;;;;;;;;5009606;28;20207;-69
2023/07/19 14:02:02;;;;;;;4.07;1.70;;;;;;;;;;5010927;28;20209;-70
2023/07/19 14:04:28;;;;;;;3.67;1.73;;;;;;;;;;5001363;28;20259;-69
2023/07/19 14:06:53;;;;;;;4.57;1.88;;;;;;;;;;5015649;28;20183;-70
2023/07/19 14:09:18;;;;;;;3.63;1.67;;;;;;;;;;5004910;28;20603;-69
2023/07/19 14:11:44;;;;;;;4.60;1.65;;;;;;;;;;5006404;28;20194;-69
2023/07/19 14:14:10;;;;;;;4.82;2.00;;;;;;;;;;5020900;28;20241;-69
2023/07/19 14:16:35;;;;;;;4.97;1.83;;;;;;;;;;5012522;28;20273;-69
2023/07/19 14:19:00;;;;;;;5.55;1.70;;;;;;;;;;4997197;28;20614;-69
2023/07/19 14:21:26;;;;;;;2.55;1.40;;;;;;;;;;5011479;28;20187;-69
2023/07/19 14:23:51;;;;;;;3.80;1.60;;;;;;;;;;5002225;28;20190;-69
2023/07/19 14:26:17;;;;;;;3.15;1.50;;;;;;;;;;4993401;28;20503;-70
2023/07/19 14:28:42;;;;;;;2.08;1.20;;;;;;;;;;5009767;28;20194;-70
2023/07/19 14:31:08;;;;;;;2.05;1.02;;;;;;;;;;5010929;28;20673;-69
2023/07/19 14:33:33;;;;;;;2.85;1.75;;;;;;;;;;5014423;28;20191;-68
2023/07/19 14:35:59;;;;;;;2.38;1.10;;;;;;;;;;5014191;28;20268;-69